Amasya Merzifon Airport

LTAP · 阿马西亚省, 土耳其

罗盘
风向 的 Amasya Merzifon Airport 5L/23R
风: 1 kt, 1 beaufort

1 kt

1 kt
改变
0 ft 1.000 2.000 3.000 4.000 5.000
CAVOK
METAR LTAP 012350Z VRB01KT CAVOK 04/M00 Q1013 NOSIG RMK RWY23 VRB02KT

METAR Amasya Merzifon Airport - LTAP/MZH

Amasya Merzifon Airport是,土耳其中的小机场。 该机场位于纬度40,82940和经度35,52200。 该机场有2条跑道: 5L/23R 和 5R/23L. 本场的ICAO机场代码为LTAP。 该机场的IATA代码为MZH。 机场在Ankara FIR中。

该航空气象观测是针对Amasya Merzifon Airport在2024年3月2日 02:50, 当地时间进行的。

机场观察

可变方向的风很小或没有风。

天气为CAVOK。这意味着在5.000 ft或MSA(最低安全高度)以下(以较高者为准)以下没有云。这也意味着没有观测到积雨云或高耸的积云,可见度为10 km 或者更多或更高。此外,不会有雾,降雨或其他重要天气。

温度和风寒是4 °C。 海平面上的气压为1013 hPa (QNH)。

白天

今天,太阳从07:09升起,在18:30降落。 这适用于Amasya Merzifon Airport,世界夏令时可能有所不同。 当地时间与世界标准时间之间的时差为+3 小时。 当前,没有夏令时有效。

公司介绍

我们没有关于这个机场的公司信息。

体会

到Vliegles.nl去找飞行课程,跳伞和其他飞行体验。 浏览页面,了解Amasya Merzifon Airport附近所有可用的活动。 你也可以使用搜索功能来寻找你所在地附近的特定飞行课程、跳伞或其他飞行体验。

跑道

Id 标题 侧风 逆风 侧风 %
5L/23R 054°-234° 81 %
5R/23L 054°-234° 81 %

逆风成分最大的方向会被突出显示,并用于横风计算。 这并不一定意味着这个方向在使用。

温度 & 天气

温度 4 °C
露点 0 °C
相对湿度 75%
Kp-index 0 (0-9)

评论

VRB02KT未知降水 开始于 02, 结束于
RWY23

白天

日出
07:11 (3:40)
中午
12:50
日落
18:29

小工具

你想在你的网站上有一个关于Amasya Merzifon Airport的当前航空天气(METAR)的小部件吗?

显示HTML代码
?>